sensor_id;sensor_type;location;lat;lon;timestamp;P1;durP1;ratioP1;P2;durP2;ratioP2
31368;SDS011;18004;48.416;10.066;2022-12-31T00:00:37;0.68;;;0.60;;
31368;SDS011;18004;48.416;10.066;2022-12-31T00:03:07;0.68;;;0.60;;
31368;SDS011;18004;48.416;10.066;2022-12-31T00:05:35;0.45;;;0.45;;
31368;SDS011;18004;48.416;10.066;2022-12-31T00:08:02;1.00;;;0.52;;
31368;SDS011;18004;48.416;10.066;2022-12-31T00:10:28;1.05;;;0.50;;
31368;SDS011;18004;48.416;10.066;2022-12-31T00:12:54;0.68;;;0.50;;
31368;SDS011;18004;48.416;10.066;2022-12-31T00:15:19;0.50;;;0.50;;
31368;SDS011;18004;48.416;10.066;2022-12-31T00:17:45;0.40;;;0.40;;
31368;SDS011;18004;48.416;10.066;2022-12-31T00:20:11;0.98;;;0.52;;
31368;SDS011;18004;48.416;10.066;2022-12-31T00:22:37;0.40;;;0.40;;
31368;SDS011;18004;48.416;10.066;2022-12-31T00:25:03;0.30;;;0.30;;
31368;SDS011;18004;48.416;10.066;2022-12-31T00:27:29;0.20;;;0.20;;
31368;SDS011;18004;48.416;10.066;2022-12-31T00:29:55;0.50;;;0.50;;
31368;SDS011;18004;48.416;10.066;2022-12-31T00:32:22;0.20;;;0.20;;
31368;SDS011;18004;48.416;10.066;2022-12-31T00:34:48;0.57;;;0.47;;
31368;SDS011;18004;48.416;10.066;2022-12-31T00:37:13;0.30;;;0.30;;
31368;SDS011;18004;48.416;10.066;2022-12-31T00:39:39;0.32;;;0.32;;
31368;SDS011;18004;48.416;10.066;2022-12-31T00:42:05;0.40;;;0.40;;
31368;SDS011;18004;48.416;10.066;2022-12-31T00:44:31;0.45;;;0.45;;
31368;SDS011;18004;48.416;10.066;2022-12-31T00:46:56;0.32;;;0.30;;
31368;SDS011;18004;48.416;10.066;2022-12-31T00:49:22;0.70;;;0.40;;
31368;SDS011;18004;48.416;10.066;2022-12-31T00:51:48;0.55;;;0.50;;
31368;SDS011;18004;48.416;10.066;2022-12-31T00:54:14;1.15;;;0.50;;
31368;SDS011;18004;48.416;10.066;2022-12-31T00:56:39;0.28;;;0.20;;
31368;SDS011;18004;48.416;10.066;2022-12-31T00:59:05;1.35;;;0.50;;
31368;SDS011;18004;48.416;10.066;2022-12-31T01:01:32;0.28;;;0.28;;
31368;SDS011;18004;48.416;10.066;2022-12-31T01:04:01;0.25;;;0.25;;
31368;SDS011;18004;48.416;10.066;2022-12-31T01:06:29;0.30;;;0.28;;
31368;SDS011;18004;48.416;10.066;2022-12-31T01:08:55;0.30;;;0.30;;
31368;SDS011;18004;48.416;10.066;2022-12-31T01:11:21;2.00;;;0.40;;
31368;SDS011;18004;48.416;10.066;2022-12-31T01:13:52;0.40;;;0.30;;
31368;SDS011;18004;48.416;10.066;2022-12-31T01:16:24;0.30;;;0.30;;
31368;SDS011;18004;48.416;10.066;2022-12-31T01:18:56;0.50;;;0.50;;
31368;SDS011;18004;48.416;10.066;2022-12-31T01:21:23;0.25;;;0.20;;
31368;SDS011;18004;48.416;10.066;2022-12-31T01:23:49;0.95;;;0.40;;
31368;SDS011;18004;48.416;10.066;2022-12-31T01:26:16;0.28;;;0.28;;
31368;SDS011;18004;48.416;10.066;2022-12-31T01:28:42;0.40;;;0.30;;
31368;SDS011;18004;48.416;10.066;2022-12-31T01:31:12;0.68;;;0.40;;
31368;SDS011;18004;48.416;10.066;2022-12-31T01:33:40;0.30;;;0.25;;
31368;SDS011;18004;48.416;10.066;2022-12-31T01:36:09;0.40;;;0.40;;
31368;SDS011;18004;48.416;10.066;2022-12-31T01:38:39;3.42;;;0.45;;
31368;SDS011;18004;48.416;10.066;2022-12-31T01:41:06;0.40;;;0.40;;
31368;SDS011;18004;48.416;10.066;2022-12-31T01:46:07;0.30;;;0.30;;
31368;SDS011;18004;48.416;10.066;2022-12-31T01:48:35;0.57;;;0.32;;
31368;SDS011;18004;48.416;10.066;2022-12-31T01:51:01;0.40;;;0.40;;
31368;SDS011;18004;48.416;10.066;2022-12-31T01:53:28;2.35;;;0.40;;
31368;SDS011;18004;48.416;10.066;2022-12-31T01:55:58;1.20;;;0.40;;
31368;SDS011;18004;48.416;10.066;2022-12-31T02:00:52;1.05;;;0.55;;
31368;SDS011;18004;48.416;10.066;2022-12-31T02:03:19;0.32;;;0.20;;
31368;SDS011;18004;48.416;10.066;2022-12-31T02:05:51;1.35;;;0.50;;
31368;SDS011;18004;48.416;10.066;2022-12-31T02:08:37;0.40;;;0.38;;
31368;SDS011;18004;48.416;10.066;2022-12-31T02:14:03;0.40;;;0.40;;
31368;SDS011;18004;48.416;10.066;2022-12-31T02:16:49;0.40;;;0.40;;
31368;SDS011;18004;48.416;10.066;2022-12-31T02:24:57;0.47;;;0.45;;
31368;SDS011;18004;48.416;10.066;2022-12-31T02:30:09;0.30;;;0.30;;
31368;SDS011;18004;48.416;10.066;2022-12-31T02:35:52;0.55;;;0.50;;
31368;SDS011;18004;48.416;10.066;2022-12-31T02:38:22;0.40;;;0.40;;
31368;SDS011;18004;48.416;10.066;2022-12-31T02:41:00;0.57;;;0.50;;
31368;SDS011;18004;48.416;10.066;2022-12-31T02:43:26;6.40;;;0.40;;
31368;SDS011;18004;48.416;10.066;2022-12-31T02:49:15;0.30;;;0.30;;
31368;SDS011;18004;48.416;10.066;2022-12-31T02:51:59;0.35;;;0.35;;
31368;SDS011;18004;48.416;10.066;2022-12-31T02:57:10;1.02;;;0.50;;
31368;SDS011;18004;48.416;10.066;2022-12-31T02:59:49;0.32;;;0.32;;
31368;SDS011;18004;48.416;10.066;2022-12-31T03:02:37;0.45;;;0.45;;
31368;SDS011;18004;48.416;10.066;2022-12-31T03:05:09;2.30;;;0.50;;
31368;SDS011;18004;48.416;10.066;2022-12-31T03:10:04;1.63;;;0.60;;
31368;SDS011;18004;48.416;10.066;2022-12-31T03:12:30;1.10;;;0.50;;
31368;SDS011;18004;48.416;10.066;2022-12-31T03:26:00;0.85;;;0.50;;
31368;SDS011;18004;48.416;10.066;2022-12-31T03:28:27;0.40;;;0.32;;
31368;SDS011;18004;48.416;10.066;2022-12-31T03:30:56;1.02;;;0.47;;
31368;SDS011;18004;48.416;10.066;2022-12-31T03:33:24;1.60;;;0.65;;
31368;SDS011;18004;48.416;10.066;2022-12-31T03:35:51;0.70;;;0.47;;
31368;SDS011;18004;48.416;10.066;2022-12-31T03:38:18;0.68;;;0.40;;
31368;SDS011;18004;48.416;10.066;2022-12-31T03:40:45;0.52;;;0.52;;
31368;SDS011;18004;48.416;10.066;2022-12-31T03:43:13;0.80;;;0.60;;
31368;SDS011;18004;48.416;10.066;2022-12-31T03:45:39;0.80;;;0.60;;
31368;SDS011;18004;48.416;10.066;2022-12-31T03:48:05;0.20;;;0.20;;
31368;SDS011;18004;48.416;10.066;2022-12-31T03:50:32;0.50;;;0.40;;
31368;SDS011;18004;48.416;10.066;2022-12-31T03:52:59;2.13;;;0.50;;
31368;SDS011;18004;48.416;10.066;2022-12-31T03:55:25;0.40;;;0.40;;
31368;SDS011;18004;48.416;10.066;2022-12-31T03:57:51;0.47;;;0.30;;
31368;SDS011;18004;48.416;10.066;2022-12-31T04:00:18;0.55;;;0.50;;
31368;SDS011;18004;48.416;10.066;2022-12-31T04:02:46;0.28;;;0.28;;
31368;SDS011;18004;48.416;10.066;2022-12-31T04:05:15;2.50;;;0.38;;
31368;SDS011;18004;48.416;10.066;2022-12-31T04:07:42;0.28;;;0.28;;
31368;SDS011;18004;48.416;10.066;2022-12-31T04:10:09;1.27;;;0.45;;
31368;SDS011;18004;48.416;10.066;2022-12-31T04:12:37;0.22;;;0.22;;
31368;SDS011;18004;48.416;10.066;2022-12-31T04:15:03;1.50;;;0.40;;
31368;SDS011;18004;48.416;10.066;2022-12-31T04:17:30;0.85;;;0.30;;
31368;SDS011;18004;48.416;10.066;2022-12-31T04:19:56;0.50;;;0.30;;
31368;SDS011;18004;48.416;10.066;2022-12-31T04:22:21;0.43;;;0.30;;
31368;SDS011;18004;48.416;10.066;2022-12-31T04:24:47;0.60;;;0.40;;
31368;SDS011;18004;48.416;10.066;2022-12-31T04:27:13;0.40;;;0.40;;
31368;SDS011;18004;48.416;10.066;2022-12-31T04:29:39;0.80;;;0.35;;
31368;SDS011;18004;48.416;10.066;2022-12-31T04:32:05;0.38;;;0.35;;
31368;SDS011;18004;48.416;10.066;2022-12-31T04:34:32;0.40;;;0.40;;
31368;SDS011;18004;48.416;10.066;2022-12-31T04:36:58;1.17;;;0.40;;
31368;SDS011;18004;48.416;10.066;2022-12-31T04:39:25;3.90;;;0.50;;
31368;SDS011;18004;48.416;10.066;2022-12-31T04:41:51;0.73;;;0.50;;
31368;SDS011;18004;48.416;10.066;2022-12-31T04:44:17;1.45;;;0.50;;
31368;SDS011;18004;48.416;10.066;2022-12-31T04:46:43;1.85;;;0.50;;
31368;SDS011;18004;48.416;10.066;2022-12-31T04:49:09;0.45;;;0.30;;
31368;SDS011;18004;48.416;10.066;2022-12-31T04:51:35;0.43;;;0.30;;
31368;SDS011;18004;48.416;10.066;2022-12-31T04:54:01;0.50;;;0.30;;
31368;SDS011;18004;48.416;10.066;2022-12-31T04:56:27;0.30;;;0.22;;
31368;SDS011;18004;48.416;10.066;2022-12-31T04:58:53;0.50;;;0.32;;
31368;SDS011;18004;48.416;10.066;2022-12-31T05:01:19;2.10;;;0.40;;
31368;SDS011;18004;48.416;10.066;2022-12-31T05:03:46;0.98;;;0.45;;
31368;SDS011;18004;48.416;10.066;2022-12-31T05:06:16;0.20;;;0.20;;
31368;SDS011;18004;48.416;10.066;2022-12-31T05:08:44;0.20;;;0.20;;
31368;SDS011;18004;48.416;10.066;2022-12-31T05:11:10;0.80;;;0.40;;
31368;SDS011;18004;48.416;10.066;2022-12-31T05:13:37;0.40;;;0.40;;
31368;SDS011;18004;48.416;10.066;2022-12-31T05:16:03;0.20;;;0.20;;
31368;SDS011;18004;48.416;10.066;2022-12-31T05:18:30;0.98;;;0.30;;
31368;SDS011;18004;48.416;10.066;2022-12-31T05:20:56;0.98;;;0.25;;
31368;SDS011;18004;48.416;10.066;2022-12-31T05:23:22;0.85;;;0.30;;
31368;SDS011;18004;48.416;10.066;2022-12-31T05:25:49;0.40;;;0.30;;
31368;SDS011;18004;48.416;10.066;2022-12-31T05:28:15;2.08;;;1.35;;
31368;SDS011;18004;48.416;10.066;2022-12-31T05:30:41;1.83;;;1.17;;
31368;SDS011;18004;48.416;10.066;2022-12-31T05:33:07;0.57;;;0.57;;
31368;SDS011;18004;48.416;10.066;2022-12-31T05:35:34;0.40;;;0.40;;
31368;SDS011;18004;48.416;10.066;2022-12-31T05:38:00;0.85;;;0.50;;
31368;SDS011;18004;48.416;10.066;2022-12-31T05:40:29;1.10;;;0.45;;
31368;SDS011;18004;48.416;10.066;2022-12-31T05:42:55;4.75;;;0.40;;
31368;SDS011;18004;48.416;10.066;2022-12-31T05:45:21;1.05;;;0.40;;
31368;SDS011;18004;48.416;10.066;2022-12-31T05:47:46;2.05;;;0.55;;
31368;SDS011;18004;48.416;10.066;2022-12-31T05:50:13;0.57;;;0.40;;
31368;SDS011;18004;48.416;10.066;2022-12-31T05:52:40;0.32;;;0.30;;
31368;SDS011;18004;48.416;10.066;2022-12-31T05:55:06;0.70;;;0.50;;
31368;SDS011;18004;48.416;10.066;2022-12-31T05:57:32;0.47;;;0.47;;
31368;SDS011;18004;48.416;10.066;2022-12-31T05:59:58;0.50;;;0.32;;
31368;SDS011;18004;48.416;10.066;2022-12-31T06:02:23;0.47;;;0.32;;
31368;SDS011;18004;48.416;10.066;2022-12-31T06:04:49;0.55;;;0.30;;
31368;SDS011;18004;48.416;10.066;2022-12-31T06:07:15;1.27;;;0.52;;
31368;SDS011;18004;48.416;10.066;2022-12-31T06:09:41;0.50;;;0.40;;
31368;SDS011;18004;48.416;10.066;2022-12-31T06:12:07;0.47;;;0.35;;
31368;SDS011;18004;48.416;10.066;2022-12-31T06:14:33;0.90;;;0.50;;
31368;SDS011;18004;48.416;10.066;2022-12-31T06:16:59;0.38;;;0.30;;
31368;SDS011;18004;48.416;10.066;2022-12-31T06:19:25;0.30;;;0.30;;
31368;SDS011;18004;48.416;10.066;2022-12-31T06:21:50;0.65;;;0.40;;
31368;SDS011;18004;48.416;10.066;2022-12-31T06:24:16;0.57;;;0.38;;
31368;SDS011;18004;48.416;10.066;2022-12-31T06:26:42;0.60;;;0.40;;
31368;SDS011;18004;48.416;10.066;2022-12-31T06:29:08;0.40;;;0.40;;
31368;SDS011;18004;48.416;10.066;2022-12-31T06:31:37;0.85;;;0.50;;
31368;SDS011;18004;48.416;10.066;2022-12-31T06:34:03;0.50;;;0.50;;
31368;SDS011;18004;48.416;10.066;2022-12-31T06:36:29;1.17;;;0.50;;
31368;SDS011;18004;48.416;10.066;2022-12-31T06:38:54;1.75;;;0.52;;
31368;SDS011;18004;48.416;10.066;2022-12-31T06:41:20;0.47;;;0.30;;
31368;SDS011;18004;48.416;10.066;2022-12-31T06:43:46;0.57;;;0.45;;
31368;SDS011;18004;48.416;10.066;2022-12-31T06:46:13;0.50;;;0.50;;
31368;SDS011;18004;48.416;10.066;2022-12-31T06:48:41;1.15;;;0.40;;
31368;SDS011;18004;48.416;10.066;2022-12-31T06:51:12;6.88;;;0.50;;
31368;SDS011;18004;48.416;10.066;2022-12-31T06:53:40;1.00;;;0.43;;
31368;SDS011;18004;48.416;10.066;2022-12-31T06:56:06;2.08;;;0.40;;
31368;SDS011;18004;48.416;10.066;2022-12-31T06:58:35;0.75;;;0.52;;
31368;SDS011;18004;48.416;10.066;2022-12-31T07:06:26;0.32;;;0.32;;
31368;SDS011;18004;48.416;10.066;2022-12-31T07:09:13;0.30;;;0.30;;
31368;SDS011;18004;48.416;10.066;2022-12-31T07:14:45;0.32;;;0.30;;
31368;SDS011;18004;48.416;10.066;2022-12-31T07:17:24;0.28;;;0.28;;
31368;SDS011;18004;48.416;10.066;2022-12-31T07:20:11;1.13;;;0.60;;
31368;SDS011;18004;48.416;10.066;2022-12-31T07:22:40;0.70;;;0.45;;
31368;SDS011;18004;48.416;10.066;2022-12-31T07:25:06;0.40;;;0.40;;
31368;SDS011;18004;48.416;10.066;2022-12-31T07:27:55;0.45;;;0.43;;
31368;SDS011;18004;48.416;10.066;2022-12-31T07:38:46;0.50;;;0.50;;
31368;SDS011;18004;48.416;10.066;2022-12-31T07:41:23;0.40;;;0.40;;
31368;SDS011;18004;48.416;10.066;2022-12-31T07:44:09;0.32;;;0.32;;
31368;SDS011;18004;48.416;10.066;2022-12-31T07:47:03;0.40;;;0.40;;
31368;SDS011;18004;48.416;10.066;2022-12-31T07:49:30;0.50;;;0.50;;
31368;SDS011;18004;48.416;10.066;2022-12-31T07:51:58;0.55;;;0.30;;
31368;SDS011;18004;48.416;10.066;2022-12-31T07:54:24;0.50;;;0.30;;
31368;SDS011;18004;48.416;10.066;2022-12-31T07:56:49;0.65;;;0.38;;
31368;SDS011;18004;48.416;10.066;2022-12-31T08:05:17;0.50;;;0.30;;
31368;SDS011;18004;48.416;10.066;2022-12-31T08:15:33;0.47;;;0.38;;
31368;SDS011;18004;48.416;10.066;2022-12-31T08:18:02;0.68;;;0.50;;
31368;SDS011;18004;48.416;10.066;2022-12-31T08:20:28;0.40;;;0.40;;
31368;SDS011;18004;48.416;10.066;2022-12-31T08:23:13;0.50;;;0.50;;
31368;SDS011;18004;48.416;10.066;2022-12-31T08:33:56;0.93;;;0.60;;
31368;SDS011;18004;48.416;10.066;2022-12-31T08:39:19;0.32;;;0.32;;
31368;SDS011;18004;48.416;10.066;2022-12-31T08:42:02;0.75;;;0.40;;
31368;SDS011;18004;48.416;10.066;2022-12-31T08:47:29;0.90;;;0.90;;
31368;SDS011;18004;48.416;10.066;2022-12-31T08:49:55;2.05;;;0.60;;
31368;SDS011;18004;48.416;10.066;2022-12-31T08:52:22;0.57;;;0.57;;
31368;SDS011;18004;48.416;10.066;2022-12-31T08:54:50;0.50;;;0.47;;
31368;SDS011;18004;48.416;10.066;2022-12-31T09:00:31;0.73;;;0.57;;
31368;SDS011;18004;48.416;10.066;2022-12-31T09:11:12;0.50;;;0.50;;
31368;SDS011;18004;48.416;10.066;2022-12-31T09:16:58;2.47;;;0.50;;
31368;SDS011;18004;48.416;10.066;2022-12-31T09:19:30;1.52;;;0.52;;
31368;SDS011;18004;48.416;10.066;2022-12-31T09:21:56;1.50;;;0.77;;
31368;SDS011;18004;48.416;10.066;2022-12-31T09:24:22;0.80;;;0.52;;
31368;SDS011;18004;48.416;10.066;2022-12-31T09:34:11;0.43;;;0.38;;
31368;SDS011;18004;48.416;10.066;2022-12-31T09:37:05;1.20;;;0.60;;
31368;SDS011;18004;48.416;10.066;2022-12-31T09:39:40;0.80;;;0.50;;
31368;SDS011;18004;48.416;10.066;2022-12-31T10:10:21;2.40;;;0.40;;
31368;SDS011;18004;48.416;10.066;2022-12-31T10:13:20;3.10;;;1.25;;
31368;SDS011;18004;48.416;10.066;2022-12-31T11:00:18;0.60;;;0.52;;
31368;SDS011;18004;48.416;10.066;2022-12-31T11:14:55;0.30;;;0.30;;
31368;SDS011;18004;48.416;10.066;2022-12-31T11:17:29;0.22;;;0.22;;
31368;SDS011;18004;48.416;10.066;2022-12-31T11:42:10;2.15;;;0.60;;
31368;SDS011;18004;48.416;10.066;2022-12-31T11:48:14;0.40;;;0.40;;
31368;SDS011;18004;48.416;10.066;2022-12-31T12:00:34;0.60;;;0.43;;
31368;SDS011;18004;48.416;10.066;2022-12-31T12:07:22;0.28;;;0.25;;
31368;SDS011;18004;48.416;10.066;2022-12-31T12:16:30;0.43;;;0.43;;
31368;SDS011;18004;48.416;10.066;2022-12-31T12:19:14;0.68;;;0.40;;
31368;SDS011;18004;48.416;10.066;2022-12-31T12:21:45;0.20;;;0.20;;
31368;SDS011;18004;48.416;10.066;2022-12-31T12:27:29;0.47;;;0.30;;
31368;SDS011;18004;48.416;10.066;2022-12-31T12:46:59;1.67;;;0.30;;
31368;SDS011;18004;48.416;10.066;2022-12-31T13:24:59;7.05;;;2.78;;
31368;SDS011;18004;48.416;10.066;2022-12-31T13:36:19;4.60;;;1.83;;
31368;SDS011;18004;48.416;10.066;2022-12-31T14:52:50;2.35;;;0.80;;
31368;SDS011;18004;48.416;10.066;2022-12-31T15:07:10;0.35;;;0.30;;
31368;SDS011;18004;48.416;10.066;2022-12-31T15:09:50;0.57;;;0.40;;
31368;SDS011;18004;48.416;10.066;2022-12-31T15:18:54;0.32;;;0.30;;
31368;SDS011;18004;48.416;10.066;2022-12-31T15:24:54;0.73;;;0.30;;
31368;SDS011;18004;48.416;10.066;2022-12-31T15:27:34;0.55;;;0.35;;
31368;SDS011;18004;48.416;10.066;2022-12-31T15:30:05;0.55;;;0.55;;
31368;SDS011;18004;48.416;10.066;2022-12-31T15:32:56;2.00;;;1.10;;
31368;SDS011;18004;48.416;10.066;2022-12-31T15:41:45;2.47;;;1.52;;
31368;SDS011;18004;48.416;10.066;2022-12-31T15:44:01;6.57;;;1.55;;
31368;SDS011;18004;48.416;10.066;2022-12-31T15:46:31;2.70;;;1.60;;
31368;SDS011;18004;48.416;10.066;2022-12-31T15:49:09;2.20;;;1.42;;
31368;SDS011;18004;48.416;10.066;2022-12-31T15:51:55;1.10;;;1.00;;
31368;SDS011;18004;48.416;10.066;2022-12-31T15:57:38;1.20;;;1.05;;
31368;SDS011;18004;48.416;10.066;2022-12-31T16:00:16;1.00;;;0.90;;
31368;SDS011;18004;48.416;10.066;2022-12-31T16:02:45;1.13;;;0.70;;
31368;SDS011;18004;48.416;10.066;2022-12-31T16:05:16;2.45;;;0.90;;
31368;SDS011;18004;48.416;10.066;2022-12-31T16:08:11;2.30;;;1.20;;
31368;SDS011;18004;48.416;10.066;2022-12-31T16:10:44;3.17;;;1.10;;
31368;SDS011;18004;48.416;10.066;2022-12-31T16:13:21;2.13;;;1.17;;
31368;SDS011;18004;48.416;10.066;2022-12-31T16:16:02;1.80;;;1.48;;
31368;SDS011;18004;48.416;10.066;2022-12-31T16:18:39;1.60;;;1.50;;
31368;SDS011;18004;48.416;10.066;2022-12-31T16:21:36;1.50;;;1.40;;
31368;SDS011;18004;48.416;10.066;2022-12-31T16:26:53;3.15;;;1.48;;
31368;SDS011;18004;48.416;10.066;2022-12-31T16:29:23;1.70;;;1.30;;
31368;SDS011;18004;48.416;10.066;2022-12-31T16:31:50;2.33;;;1.20;;
31368;SDS011;18004;48.416;10.066;2022-12-31T16:34:21;2.13;;;1.65;;
31368;SDS011;18004;48.416;10.066;2022-12-31T16:36:58;2.85;;;1.67;;
31368;SDS011;18004;48.416;10.066;2022-12-31T16:39:38;7.15;;;5.13;;
31368;SDS011;18004;48.416;10.066;2022-12-31T16:42:22;3.60;;;3.00;;
31368;SDS011;18004;48.416;10.066;2022-12-31T16:44:50;4.38;;;3.83;;
31368;SDS011;18004;48.416;10.066;2022-12-31T16:47:23;8.90;;;3.78;;
31368;SDS011;18004;48.416;10.066;2022-12-31T16:49:59;6.47;;;4.05;;
31368;SDS011;18004;48.416;10.066;2022-12-31T16:52:41;5.40;;;4.15;;
31368;SDS011;18004;48.416;10.066;2022-12-31T16:55:53;4.47;;;3.03;;
31368;SDS011;18004;48.416;10.066;2022-12-31T16:59:03;2.92;;;1.92;;
31368;SDS011;18004;48.416;10.066;2022-12-31T17:02:18;2.70;;;1.63;;
31368;SDS011;18004;48.416;10.066;2022-12-31T17:08:43;1.52;;;1.30;;
31368;SDS011;18004;48.416;10.066;2022-12-31T17:11:43;1.50;;;1.10;;
31368;SDS011;18004;48.416;10.066;2022-12-31T17:16:37;2.65;;;1.48;;
31368;SDS011;18004;48.416;10.066;2022-12-31T17:19:32;1.92;;;1.50;;
31368;SDS011;18004;48.416;10.066;2022-12-31T17:22:12;2.42;;;1.58;;
31368;SDS011;18004;48.416;10.066;2022-12-31T17:25:22;4.95;;;1.80;;
31368;SDS011;18004;48.416;10.066;2022-12-31T17:28:06;3.22;;;1.90;;
31368;SDS011;18004;48.416;10.066;2022-12-31T17:30:48;1.25;;;1.13;;
31368;SDS011;18004;48.416;10.066;2022-12-31T17:35:47;3.70;;;1.92;;
31368;SDS011;18004;48.416;10.066;2022-12-31T17:39:19;3.20;;;2.53;;
31368;SDS011;18004;48.416;10.066;2022-12-31T17:41:55;4.70;;;3.20;;
31368;SDS011;18004;48.416;10.066;2022-12-31T17:44:34;6.75;;;3.42;;
31368;SDS011;18004;48.416;10.066;2022-12-31T17:47:03;7.30;;;3.55;;
31368;SDS011;18004;48.416;10.066;2022-12-31T17:49:55;6.70;;;3.58;;
31368;SDS011;18004;48.416;10.066;2022-12-31T17:52:21;18.08;;;4.45;;
31368;SDS011;18004;48.416;10.066;2022-12-31T17:54:50;5.55;;;3.72;;
31368;SDS011;18004;48.416;10.066;2022-12-31T17:57:33;6.68;;;3.45;;
31368;SDS011;18004;48.416;10.066;2022-12-31T18:00:11;5.78;;;3.80;;
31368;SDS011;18004;48.416;10.066;2022-12-31T18:03:08;9.75;;;4.80;;
31368;SDS011;18004;48.416;10.066;2022-12-31T18:05:34;9.45;;;4.55;;
31368;SDS011;18004;48.416;10.066;2022-12-31T18:08:03;6.07;;;4.30;;
31368;SDS011;18004;48.416;10.066;2022-12-31T18:10:30;11.10;;;4.32;;
31368;SDS011;18004;48.416;10.066;2022-12-31T18:13:26;5.45;;;3.72;;
31368;SDS011;18004;48.416;10.066;2022-12-31T18:15:55;8.30;;;3.90;;
31368;SDS011;18004;48.416;10.066;2022-12-31T18:18:25;6.95;;;4.18;;
31368;SDS011;18004;48.416;10.066;2022-12-31T18:21:13;5.07;;;3.50;;
31368;SDS011;18004;48.416;10.066;2022-12-31T18:23:44;8.48;;;4.32;;
31368;SDS011;18004;48.416;10.066;2022-12-31T18:26:15;6.18;;;4.05;;
31368;SDS011;18004;48.416;10.066;2022-12-31T18:28:45;9.77;;;6.13;;
31368;SDS011;18004;48.416;10.066;2022-12-31T18:31:16;13.35;;;6.22;;
31368;SDS011;18004;48.416;10.066;2022-12-31T18:33:48;10.02;;;5.68;;
31368;SDS011;18004;48.416;10.066;2022-12-31T18:36:16;11.35;;;5.13;;
31368;SDS011;18004;48.416;10.066;2022-12-31T18:38:48;13.70;;;5.28;;
31368;SDS011;18004;48.416;10.066;2022-12-31T18:41:19;9.52;;;5.55;;
31368;SDS011;18004;48.416;10.066;2022-12-31T18:47:32;13.85;;;5.65;;
31368;SDS011;18004;48.416;10.066;2022-12-31T18:49:58;12.30;;;5.63;;
31368;SDS011;18004;48.416;10.066;2022-12-31T18:52:32;29.50;;;18.58;;
31368;SDS011;18004;48.416;10.066;2022-12-31T18:54:58;97.22;;;57.85;;
31368;SDS011;18004;48.416;10.066;2022-12-31T18:57:34;22.73;;;14.45;;
31368;SDS011;18004;48.416;10.066;2022-12-31T19:00:00;9.90;;;6.60;;
31368;SDS011;18004;48.416;10.066;2022-12-31T19:02:26;7.97;;;5.05;;
31368;SDS011;18004;48.416;10.066;2022-12-31T19:04:51;7.72;;;4.57;;
31368;SDS011;18004;48.416;10.066;2022-12-31T19:07:20;5.00;;;3.55;;
31368;SDS011;18004;48.416;10.066;2022-12-31T19:09:46;6.63;;;3.88;;
31368;SDS011;18004;48.416;10.066;2022-12-31T19:12:12;4.15;;;3.22;;
31368;SDS011;18004;48.416;10.066;2022-12-31T19:14:38;8.25;;;4.00;;
31368;SDS011;18004;48.416;10.066;2022-12-31T19:17:04;7.15;;;4.07;;
31368;SDS011;18004;48.416;10.066;2022-12-31T19:19:30;10.88;;;5.25;;
31368;SDS011;18004;48.416;10.066;2022-12-31T19:21:56;9.35;;;4.63;;
31368;SDS011;18004;48.416;10.066;2022-12-31T19:24:23;11.48;;;4.18;;
31368;SDS011;18004;48.416;10.066;2022-12-31T19:26:53;6.25;;;4.22;;
31368;SDS011;18004;48.416;10.066;2022-12-31T19:29:20;4.22;;;2.72;;
31368;SDS011;18004;48.416;10.066;2022-12-31T19:31:47;6.13;;;4.10;;
31368;SDS011;18004;48.416;10.066;2022-12-31T19:34:13;5.25;;;4.35;;
31368;SDS011;18004;48.416;10.066;2022-12-31T19:36:39;7.30;;;4.85;;
31368;SDS011;18004;48.416;10.066;2022-12-31T19:39:06;9.40;;;5.15;;
31368;SDS011;18004;48.416;10.066;2022-12-31T19:44:05;10.35;;;5.57;;
31368;SDS011;18004;48.416;10.066;2022-12-31T19:46:33;9.65;;;6.53;;
31368;SDS011;18004;48.416;10.066;2022-12-31T19:48:58;19.65;;;11.93;;
31368;SDS011;18004;48.416;10.066;2022-12-31T19:51:24;16.23;;;8.07;;
31368;SDS011;18004;48.416;10.066;2022-12-31T19:53:50;9.70;;;5.63;;
31368;SDS011;18004;48.416;10.066;2022-12-31T19:56:16;9.00;;;5.20;;
31368;SDS011;18004;48.416;10.066;2022-12-31T19:58:45;8.95;;;5.40;;
31368;SDS011;18004;48.416;10.066;2022-12-31T20:01:15;8.57;;;5.22;;
31368;SDS011;18004;48.416;10.066;2022-12-31T20:03:43;12.05;;;6.68;;
31368;SDS011;18004;48.416;10.066;2022-12-31T20:06:09;16.40;;;10.30;;
31368;SDS011;18004;48.416;10.066;2022-12-31T20:08:36;15.05;;;8.20;;
31368;SDS011;18004;48.416;10.066;2022-12-31T20:11:09;8.95;;;5.57;;
31368;SDS011;18004;48.416;10.066;2022-12-31T20:13:43;8.77;;;4.75;;
31368;SDS011;18004;48.416;10.066;2022-12-31T20:16:14;5.35;;;3.97;;
31368;SDS011;18004;48.416;10.066;2022-12-31T20:18:42;7.03;;;4.07;;
31368;SDS011;18004;48.416;10.066;2022-12-31T20:21:20;6.55;;;4.07;;
31368;SDS011;18004;48.416;10.066;2022-12-31T20:23:48;6.00;;;4.28;;
31368;SDS011;18004;48.416;10.066;2022-12-31T20:26:16;9.75;;;4.95;;
31368;SDS011;18004;48.416;10.066;2022-12-31T20:28:43;10.43;;;4.13;;
31368;SDS011;18004;48.416;10.066;2022-12-31T20:31:10;8.60;;;4.70;;
31368;SDS011;18004;48.416;10.066;2022-12-31T20:33:37;10.18;;;5.28;;
31368;SDS011;18004;48.416;10.066;2022-12-31T20:36:03;6.43;;;4.45;;
31368;SDS011;18004;48.416;10.066;2022-12-31T20:38:31;9.50;;;5.20;;
31368;SDS011;18004;48.416;10.066;2022-12-31T20:41:03;13.43;;;7.07;;
31368;SDS011;18004;48.416;10.066;2022-12-31T20:43:33;12.73;;;6.43;;
31368;SDS011;18004;48.416;10.066;2022-12-31T20:46:04;10.82;;;6.00;;
31368;SDS011;18004;48.416;10.066;2022-12-31T20:48:34;9.65;;;5.70;;
31368;SDS011;18004;48.416;10.066;2022-12-31T20:51:00;15.00;;;6.53;;
31368;SDS011;18004;48.416;10.066;2022-12-31T20:53:29;11.55;;;7.05;;
31368;SDS011;18004;48.416;10.066;2022-12-31T20:55:55;13.23;;;6.93;;
31368;SDS011;18004;48.416;10.066;2022-12-31T20:58:20;11.18;;;6.18;;
31368;SDS011;18004;48.416;10.066;2022-12-31T21:00:48;11.13;;;6.63;;
31368;SDS011;18004;48.416;10.066;2022-12-31T21:03:14;10.85;;;6.80;;
31368;SDS011;18004;48.416;10.066;2022-12-31T21:05:49;12.82;;;7.07;;
31368;SDS011;18004;48.416;10.066;2022-12-31T21:08:16;11.70;;;6.65;;
31368;SDS011;18004;48.416;10.066;2022-12-31T21:10:42;9.95;;;6.95;;
31368;SDS011;18004;48.416;10.066;2022-12-31T21:13:12;11.75;;;6.90;;
31368;SDS011;18004;48.416;10.066;2022-12-31T21:15:38;13.02;;;7.03;;
31368;SDS011;18004;48.416;10.066;2022-12-31T21:18:03;11.90;;;7.75;;
31368;SDS011;18004;48.416;10.066;2022-12-31T21:20:29;16.55;;;8.15;;
31368;SDS011;18004;48.416;10.066;2022-12-31T21:22:55;16.60;;;7.35;;
31368;SDS011;18004;48.416;10.066;2022-12-31T21:25:21;11.48;;;8.07;;
31368;SDS011;18004;48.416;10.066;2022-12-31T21:27:46;11.52;;;6.85;;
31368;SDS011;18004;48.416;10.066;2022-12-31T21:30:12;13.57;;;7.78;;
31368;SDS011;18004;48.416;10.066;2022-12-31T21:32:38;12.57;;;7.40;;
31368;SDS011;18004;48.416;10.066;2022-12-31T21:35:04;15.90;;;7.75;;
31368;SDS011;18004;48.416;10.066;2022-12-31T21:37:30;12.63;;;7.47;;
31368;SDS011;18004;48.416;10.066;2022-12-31T21:40:05;11.65;;;6.63;;
31368;SDS011;18004;48.416;10.066;2022-12-31T21:42:31;8.85;;;6.80;;
31368;SDS011;18004;48.416;10.066;2022-12-31T21:44:56;10.02;;;6.72;;
31368;SDS011;18004;48.416;10.066;2022-12-31T21:47:23;9.35;;;6.53;;
31368;SDS011;18004;48.416;10.066;2022-12-31T21:50:07;10.20;;;6.85;;
31368;SDS011;18004;48.416;10.066;2022-12-31T21:52:34;13.25;;;8.07;;
31368;SDS011;18004;48.416;10.066;2022-12-31T21:55:00;14.57;;;7.95;;
31368;SDS011;18004;48.416;10.066;2022-12-31T21:57:48;11.50;;;7.10;;